North Beach, New Jersey
Current Conditions -  °F | °C
As of 10:35 PM on Monday 22 Dec 2014 (Local Time) from KMJX Reporting Station
Overcast Overcast  
Wind Chill: 43°   Ceiling: 7000
Heat Index: 43°   Visibility: 4mi
Dew Point: 43°   Wind: 3mph
Humidity: 100%   Direction: 70°ENE
Pressure: 30.15"   Gusts: NA
Location:  39.623°N, 74.1974°W
Report Text: KMJX 230335Z AUTO 07003KT 4SM OVC070 06/06 A3015 RMK AO1
Loading
Personal Weather Stations






























Interactive Weather Map New forecast layout! Learn more

10-Day Weather Forecast

Advertisements
Track Severe Weather on mobile